createdAt,value
2022-08-19T00:01:52.729Z,17.86
2022-08-19T00:04:23.807Z,17.77
2022-08-19T00:06:54.324Z,17.69
2022-08-19T00:09:24.519Z,17.55
2022-08-19T00:11:52.818Z,17.48
2022-08-19T00:14:22.946Z,17.50
2022-08-19T00:16:52.590Z,17.43
2022-08-19T00:19:20.547Z,17.41
2022-08-19T00:21:48.552Z,17.64
2022-08-19T00:24:17.930Z,17.65
2022-08-19T00:26:46.834Z,17.71
2022-08-19T00:29:17.183Z,17.80
2022-08-19T00:31:46.847Z,17.82
2022-08-19T00:34:16.430Z,17.89
2022-08-19T00:36:45.563Z,17.76
2022-08-19T00:39:14.294Z,17.87
2022-08-19T00:41:44.471Z,17.91
2022-08-19T00:44:14.814Z,17.78
2022-08-19T00:46:55.361Z,17.78
2022-08-19T00:49:31.904Z,17.82
2022-08-19T00:52:03.978Z,17.87
2022-08-19T00:54:34.149Z,17.82
2022-08-19T00:57:07.229Z,17.80
2022-08-19T00:59:53.422Z,17.75
2022-08-19T01:02:25.499Z,17.72
2022-08-19T01:04:53.529Z,17.75
2022-08-19T01:07:21.682Z,17.79
2022-08-19T01:09:49.855Z,17.74
2022-08-19T01:12:20.527Z,17.74
2022-08-19T01:14:50.077Z,17.75
2022-08-19T01:17:18.965Z,17.73
2022-08-19T01:19:48.829Z,17.76
2022-08-19T01:22:28.707Z,17.80
2022-08-19T01:25:01.526Z,17.79
2022-08-19T01:27:43.886Z,17.80
2022-08-19T01:30:15.090Z,17.75
2022-08-19T01:32:44.430Z,17.76
2022-08-19T01:35:14.192Z,17.76
2022-08-19T01:37:49.392Z,17.67
2022-08-19T01:40:21.672Z,17.60
2022-08-19T01:42:50.886Z,17.66
2022-08-19T01:45:20.631Z,17.64
2022-08-19T01:48:01.024Z,17.60
2022-08-19T01:50:30.727Z,17.63
2022-08-19T01:53:05.893Z,17.67
2022-08-19T01:55:41.052Z,17.57
2022-08-19T01:58:14.729Z,17.59
2022-08-19T02:00:45.264Z,17.61
2022-08-19T02:03:13.725Z,17.57
2022-08-19T02:05:43.048Z,17.55
2022-08-19T02:08:11.512Z,17.54
2022-08-19T02:10:44.797Z,17.54
2022-08-19T02:13:14.646Z,17.54
2022-08-19T02:15:44.444Z,17.59
2022-08-19T02:18:12.526Z,17.59
2022-08-19T02:20:42.560Z,17.56
2022-08-19T02:23:13.841Z,17.53
2022-08-19T02:25:49.060Z,17.50
2022-08-19T02:28:18.980Z,17.51
2022-08-19T02:30:49.535Z,17.55
2022-08-19T02:33:18.002Z,17.52
2022-08-19T02:35:48.140Z,17.48
2022-08-19T02:38:27.211Z,17.49
2022-08-19T02:40:58.415Z,17.52
2022-08-19T02:43:32.270Z,17.53
2022-08-19T02:46:02.746Z,17.51
2022-08-19T02:48:31.435Z,17.47
2022-08-19T02:51:00.541Z,17.48
2022-08-19T02:53:30.009Z,17.45
2022-08-19T02:56:00.717Z,17.55
2022-08-19T02:58:29.875Z,17.54
2022-08-19T03:01:00.007Z,17.51
2022-08-19T03:03:29.249Z,17.56
2022-08-19T03:06:11.984Z,17.64
2022-08-19T03:08:41.690Z,17.65
2022-08-19T03:11:16.905Z,17.62
2022-08-19T03:13:45.312Z,17.63
2022-08-19T03:16:14.274Z,17.60
2022-08-19T03:18:42.205Z,17.55
2022-08-19T03:21:12.450Z,17.59
2022-08-19T03:23:41.246Z,17.54
2022-08-19T03:26:16.668Z,17.51
2022-08-19T03:28:51.372Z,17.54
2022-08-19T03:31:44.462Z,17.56
2022-08-19T03:34:13.007Z,17.48
2022-08-19T03:36:42.051Z,17.49
2022-08-19T03:39:15.703Z,17.49
2022-08-19T03:41:46.476Z,17.47
2022-08-19T03:44:21.721Z,17.47
2022-08-19T03:46:50.204Z,17.44
2022-08-19T03:49:18.871Z,17.48
2022-08-19T03:51:49.344Z,17.47
2022-08-19T03:54:21.246Z,17.49
2022-08-19T03:56:53.367Z,17.50
2022-08-19T03:59:27.166Z,17.39
2022-08-19T04:01:56.163Z,17.47
2022-08-19T04:04:24.704Z,17.45
2022-08-19T04:06:58.088Z,17.53
2022-08-19T04:09:27.237Z,17.56
2022-08-19T04:11:57.957Z,17.53
2022-08-19T04:14:31.301Z,17.49
2022-08-19T04:17:00.591Z,17.49
2022-08-19T04:19:31.220Z,17.45
2022-08-19T04:21:59.688Z,17.49
2022-08-19T04:24:28.169Z,17.51
2022-08-19T04:26:57.013Z,17.55
2022-08-19T04:29:28.750Z,17.61
2022-08-19T04:31:58.024Z,17.61
2022-08-19T04:34:29.759Z,17.60
2022-08-19T04:36:59.402Z,17.42
2022-08-19T04:39:50.644Z,17.54
2022-08-19T04:42:34.108Z,17.67
2022-08-19T04:45:05.321Z,17.55
2022-08-19T04:47:47.073Z,17.59
2022-08-19T04:50:17.743Z,17.59
2022-08-19T04:52:45.737Z,17.55
2022-08-19T04:55:15.565Z,17.63
2022-08-19T04:57:43.785Z,17.58
2022-08-19T05:00:14.197Z,17.61
2022-08-19T05:02:42.398Z,17.64
2022-08-19T05:05:10.937Z,17.68
2022-08-19T05:07:39.240Z,17.60
2022-08-19T05:10:08.377Z,17.69
2022-08-19T05:12:36.700Z,17.69
2022-08-19T05:15:09.570Z,17.70
2022-08-19T05:17:39.434Z,17.72
2022-08-19T05:20:26.301Z,17.74
2022-08-19T05:22:54.684Z,17.69
2022-08-19T05:25:24.426Z,17.71
2022-08-19T05:27:52.446Z,17.61
2022-08-19T05:30:33.556Z,17.58
2022-08-19T05:33:11.160Z,17.61
2022-08-19T05:35:40.671Z,17.70
2022-08-19T05:38:09.388Z,17.78
2022-08-19T05:40:38.130Z,17.72
2022-08-19T05:43:07.133Z,17.69
2022-08-19T05:45:39.704Z,17.72
2022-08-19T05:48:12.125Z,17.72
2022-08-19T05:50:40.862Z,17.67
2022-08-19T05:53:09.853Z,17.56
2022-08-19T05:55:39.255Z,17.64
2022-08-19T05:58:08.721Z,17.78
2022-08-19T06:00:36.928Z,17.78
2022-08-19T06:03:11.909Z,17.80
2022-08-19T06:05:51.695Z,17.82
2022-08-19T06:08:34.352Z,17.83
2022-08-19T06:11:15.447Z,17.83
2022-08-19T06:13:43.518Z,17.92
2022-08-19T06:16:11.607Z,17.93
2022-08-19T06:18:39.713Z,17.99
2022-08-19T06:21:09.141Z,18.08
2022-08-19T06:23:37.185Z,18.15
2022-08-19T06:26:05.300Z,18.22
2022-08-19T06:28:34.074Z,18.09
2022-08-19T06:31:09.000Z,18.15
2022-08-19T06:33:37.259Z,18.19
2022-08-19T06:36:05.940Z,18.28
2022-08-19T06:38:35.572Z,18.24
2022-08-19T06:41:07.426Z,18.20
2022-08-19T06:43:41.214Z,18.18
2022-08-19T06:46:14.849Z,18.22
2022-08-19T06:48:45.527Z,18.28
2022-08-19T06:51:19.371Z,18.33
2022-08-19T06:56:21.337Z,18.32
2022-08-19T06:58:53.914Z,18.31
2022-08-19T07:01:22.450Z,18.30
2022-08-19T07:03:50.828Z,18.43
2022-08-19T07:09:12.191Z,18.58
2022-08-19T07:11:40.580Z,18.60
2022-08-19T07:14:19.245Z,18.57
2022-08-19T07:16:48.998Z,18.75
2022-08-19T07:19:18.674Z,18.73
2022-08-19T07:21:48.574Z,18.96
2022-08-19T07:24:19.090Z,18.84
2022-08-19T07:26:47.161Z,18.85
2022-08-19T07:29:25.654Z,18.92
2022-08-19T07:32:00.076Z,18.94
2022-08-19T07:34:30.348Z,18.93
2022-08-19T07:36:58.868Z,19.03
2022-08-19T07:39:31.872Z,19.00
2022-08-19T07:42:03.404Z,19.08
2022-08-19T07:44:32.127Z,19.20
2022-08-19T07:47:01.189Z,19.34
2022-08-19T07:49:29.645Z,19.52
2022-08-19T07:52:00.404Z,19.53
2022-08-19T07:54:33.730Z,19.74
2022-08-19T07:57:01.728Z,19.90
2022-08-19T07:59:30.584Z,19.96
2022-08-19T08:02:00.761Z,19.85
2022-08-19T08:04:46.444Z,19.71
2022-08-19T08:07:31.892Z,19.87
2022-08-19T08:10:03.120Z,19.91
2022-08-19T08:12:36.239Z,20.20
2022-08-19T08:15:12.409Z,20.06
2022-08-19T08:17:49.702Z,20.17
2022-08-19T08:20:21.004Z,20.31
2022-08-19T08:23:07.586Z,20.44
2022-08-19T08:25:38.427Z,20.47
2022-08-19T08:28:08.551Z,20.48
2022-08-19T08:30:45.333Z,20.54
2022-08-19T08:33:13.799Z,20.54
2022-08-19T08:35:44.077Z,20.67
2022-08-19T08:38:12.066Z,20.67
2022-08-19T08:40:47.332Z,20.95
2022-08-19T08:43:30.697Z,21.09
2022-08-19T08:46:05.069Z,21.03
2022-08-19T08:48:40.244Z,21.05
2022-08-19T08:51:13.738Z,20.93
2022-08-19T08:53:50.767Z,20.65
2022-08-19T08:56:26.503Z,21.01
2022-08-19T08:59:00.793Z,20.60
2022-08-19T09:01:30.453Z,20.79
2022-08-19T09:04:02.663Z,20.86
2022-08-19T09:06:46.339Z,20.83
2022-08-19T09:09:19.041Z,20.80
2022-08-19T09:12:04.871Z,20.87
2022-08-19T09:14:50.763Z,20.81
2022-08-19T09:17:30.700Z,20.90
2022-08-19T09:20:05.779Z,20.82
2022-08-19T09:22:41.085Z,21.00
2022-08-19T09:25:14.895Z,20.81
2022-08-19T09:27:52.103Z,20.95
2022-08-19T09:30:25.567Z,20.95
2022-08-19T09:32:56.952Z,20.89
2022-08-19T09:35:28.437Z,20.48
2022-08-19T09:37:59.500Z,20.62
2022-08-19T09:40:30.370Z,20.69
2022-08-19T09:43:10.219Z,20.83
2022-08-19T09:45:42.771Z,20.58
2022-08-19T09:48:11.784Z,20.68
2022-08-19T09:50:51.734Z,20.86
2022-08-19T09:53:25.437Z,20.60
2022-08-19T09:55:54.118Z,20.39
2022-08-19T09:58:29.307Z,20.62
2022-08-19T10:01:01.168Z,20.73
2022-08-19T10:03:31.068Z,20.91
2022-08-19T10:06:01.345Z,20.83
2022-08-19T10:08:33.065Z,21.04
2022-08-19T10:11:28.586Z,21.17
2022-08-19T10:13:53.029Z,21.10
2022-08-19T10:16:26.220Z,20.93
2022-08-19T10:18:59.290Z,20.96
2022-08-19T10:21:32.156Z,21.24
2022-08-19T10:24:04.840Z,21.32
2022-08-19T10:26:38.789Z,21.41
2022-08-19T10:29:12.629Z,21.78
2022-08-19T10:31:59.891Z,21.93
2022-08-19T10:34:29.669Z,22.18
2022-08-19T10:37:01.741Z,22.06
2022-08-19T10:39:42.485Z,22.07
2022-08-19T10:42:22.378Z,21.99
2022-08-19T10:44:57.193Z,22.28
2022-08-19T10:47:32.745Z,22.59
2022-08-19T10:50:18.815Z,22.53
2022-08-19T10:52:52.810Z,22.66
2022-08-19T10:55:43.734Z,22.61
2022-08-19T10:58:18.263Z,22.54
2022-08-19T11:00:55.213Z,22.63
2022-08-19T11:03:25.587Z,22.53
2022-08-19T11:06:02.544Z,22.42
2022-08-19T11:08:32.482Z,22.58
2022-08-19T11:11:04.383Z,22.63
2022-08-19T11:13:34.697Z,22.67
2022-08-19T11:16:08.890Z,22.72
2022-08-19T11:18:40.644Z,22.68
2022-08-19T11:21:11.982Z,22.94
2022-08-19T11:23:40.292Z,23.14
2022-08-19T11:26:08.763Z,23.02
2022-08-19T11:28:37.005Z,23.12
2022-08-19T11:31:07.363Z,22.97
2022-08-19T11:33:36.124Z,23.21
2022-08-19T11:36:04.634Z,23.18
2022-08-19T11:38:32.939Z,23.43
2022-08-19T11:41:03.211Z,22.98
2022-08-19T11:43:37.134Z,22.98
2022-08-19T11:46:09.712Z,23.15
2022-08-19T11:48:38.008Z,23.15
2022-08-19T11:51:08.852Z,23.41
2022-08-19T11:53:37.870Z,23.44
2022-08-19T11:56:07.481Z,23.31
2022-08-19T11:58:36.458Z,23.21
2022-08-19T12:01:10.112Z,23.47
2022-08-19T12:03:38.272Z,23.71
2022-08-19T12:06:07.826Z,23.89
2022-08-19T12:08:36.149Z,23.81
2022-08-19T12:11:04.535Z,23.66
2022-08-19T12:13:33.498Z,23.74
2022-08-19T12:16:01.600Z,23.66
2022-08-19T12:18:31.121Z,23.61
2022-08-19T12:21:01.609Z,23.60
2022-08-19T12:23:29.627Z,23.30
2022-08-19T12:25:58.192Z,23.16
2022-08-19T12:28:27.412Z,22.98
2022-08-19T12:30:55.494Z,22.91
2022-08-19T12:33:26.533Z,22.86
2022-08-19T12:36:02.025Z,22.94
2022-08-19T12:38:30.348Z,22.85
2022-08-19T12:41:00.411Z,22.33
2022-08-19T12:43:29.163Z,22.27
2022-08-19T12:45:57.559Z,22.22
2022-08-19T12:48:34.504Z,22.02
2022-08-19T12:51:09.348Z,22.08
2022-08-19T12:53:39.258Z,21.91
2022-08-19T12:56:11.457Z,21.96
2022-08-19T12:58:48.722Z,21.87
2022-08-19T13:01:23.154Z,21.85
2022-08-19T13:03:53.651Z,21.85
2022-08-19T13:06:24.931Z,21.56
2022-08-19T13:08:55.506Z,21.75
2022-08-19T13:11:28.110Z,21.56
2022-08-19T13:13:58.292Z,21.40
2022-08-19T13:16:31.660Z,21.28
2022-08-19T13:19:01.353Z,21.50
2022-08-19T13:21:38.217Z,21.41
2022-08-19T13:24:12.323Z,21.56
2022-08-19T13:26:44.376Z,21.61
2022-08-19T13:29:32.356Z,21.71
2022-08-19T13:32:21.488Z,21.78
2022-08-19T13:34:51.023Z,21.91
2022-08-19T13:37:41.330Z,22.02
2022-08-19T13:40:15.535Z,22.08
2022-08-19T13:42:55.704Z,22.12
2022-08-19T13:45:31.472Z,22.24
2022-08-19T13:48:01.736Z,22.49
2022-08-19T13:50:32.310Z,22.49
2022-08-19T13:53:05.765Z,22.57
2022-08-19T13:55:34.555Z,23.38
2022-08-19T13:58:06.261Z,23.58
2022-08-19T14:00:45.714Z,24.05
2022-08-19T14:03:20.947Z,23.88
2022-08-19T14:05:50.330Z,24.45
2022-08-19T14:08:20.236Z,24.71
2022-08-19T14:10:52.280Z,24.36
2022-08-19T14:13:32.647Z,24.14
2022-08-19T14:16:03.603Z,24.82
2022-08-19T14:18:33.913Z,24.69
2022-08-19T14:21:02.619Z,24.29
2022-08-19T14:23:32.397Z,24.18
2022-08-19T14:26:14.629Z,24.11
2022-08-19T14:28:45.571Z,23.95
2022-08-19T14:31:17.840Z,23.85
2022-08-19T14:33:46.649Z,23.55
2022-08-19T14:36:16.162Z,23.56
2022-08-19T14:38:52.391Z,23.67
2022-08-19T14:41:29.962Z,23.57
2022-08-19T14:44:04.469Z,23.60
2022-08-19T14:46:35.783Z,23.52
2022-08-19T14:49:10.381Z,23.70
2022-08-19T14:51:41.130Z,23.43
2022-08-19T14:54:10.725Z,23.33
2022-08-19T14:56:40.807Z,23.34
2022-08-19T14:59:09.612Z,23.20
2022-08-19T15:01:38.266Z,23.29
2022-08-19T15:04:06.397Z,22.99
2022-08-19T15:06:35.205Z,23.13
2022-08-19T15:09:04.486Z,23.08
2022-08-19T15:11:35.154Z,22.96
2022-08-19T15:14:03.821Z,22.52
2022-08-19T15:16:31.844Z,22.50
2022-08-19T15:19:01.591Z,22.42
2022-08-19T15:21:32.027Z,22.39
2022-08-19T15:24:01.837Z,22.45
2022-08-19T15:26:33.685Z,22.47
2022-08-19T15:29:04.308Z,22.40
2022-08-19T15:31:38.077Z,22.26
2022-08-19T15:34:07.490Z,22.27
2022-08-19T15:36:36.552Z,22.24
2022-08-19T15:39:07.429Z,22.18
2022-08-19T15:41:36.985Z,22.18
2022-08-19T15:44:10.246Z,22.08
2022-08-19T15:46:41.033Z,22.10
2022-08-19T15:49:10.516Z,22.17
2022-08-19T15:51:40.788Z,22.16
2022-08-19T15:54:12.143Z,22.23
2022-08-19T15:56:58.639Z,22.24
2022-08-19T15:59:47.177Z,22.34
2022-08-19T16:02:37.097Z,22.31
2022-08-19T16:05:27.352Z,22.36
2022-08-19T16:07:55.807Z,22.40
2022-08-19T16:10:27.385Z,22.45
2022-08-19T16:12:57.438Z,22.46
2022-08-19T16:15:29.378Z,22.64
2022-08-19T16:17:59.030Z,22.51
2022-08-19T16:20:28.110Z,22.49
2022-08-19T16:22:58.327Z,22.34
2022-08-19T16:25:36.082Z,22.46
2022-08-19T16:28:08.613Z,22.40
2022-08-19T16:30:48.690Z,22.28
2022-08-19T16:33:23.022Z,22.32
2022-08-19T16:36:00.128Z,22.26
2022-08-19T16:38:36.163Z,22.25
2022-08-19T16:41:05.240Z,22.25
2022-08-19T16:43:39.020Z,22.16
2022-08-19T16:46:12.598Z,22.07
2022-08-19T16:49:00.159Z,22.07
2022-08-19T16:51:28.905Z,22.00
2022-08-19T16:54:13.258Z,21.96
2022-08-19T16:58:10.209Z,21.67
2022-08-19T17:03:37.854Z,22.04
2022-08-19T17:06:17.874Z,22.07
2022-08-19T17:08:50.332Z,22.12
2022-08-19T17:11:19.472Z,22.20
2022-08-19T17:13:51.046Z,22.18
2022-08-19T17:16:20.029Z,22.39
2022-08-19T17:18:52.634Z,22.53
2022-08-19T17:21:23.528Z,22.48
2022-08-19T17:23:51.829Z,22.46
2022-08-19T17:26:20.368Z,22.54
2022-08-19T17:28:51.372Z,22.45
2022-08-19T17:31:24.499Z,22.31
2022-08-19T17:33:55.183Z,22.34
2022-08-19T17:36:25.499Z,22.37
2022-08-19T17:38:56.579Z,22.40
2022-08-19T17:41:27.105Z,22.28
2022-08-19T17:43:56.372Z,22.31
2022-08-19T17:46:24.553Z,22.36
2022-08-19T17:48:55.317Z,22.25
2022-08-19T17:51:26.064Z,22.12
2022-08-19T17:53:55.835Z,21.97
2022-08-19T17:56:24.106Z,21.90
2022-08-19T17:58:59.798Z,21.84
2022-08-19T18:01:41.614Z,21.76
2022-08-19T18:04:20.178Z,21.87
2022-08-19T18:06:53.761Z,21.74
2022-08-19T18:09:25.017Z,21.74
2022-08-19T18:11:55.091Z,21.62
2022-08-19T18:14:33.390Z,21.51
2022-08-19T18:17:06.124Z,21.44
2022-08-19T18:19:41.460Z,21.37
2022-08-19T18:22:12.203Z,21.34
2022-08-19T18:24:42.065Z,21.27
2022-08-19T18:27:10.280Z,21.25
2022-08-19T18:29:40.770Z,21.20
2022-08-19T18:32:13.996Z,21.10
2022-08-19T18:34:46.493Z,21.01
2022-08-19T18:37:14.754Z,20.91
2022-08-19T18:40:01.090Z,20.88
2022-08-19T18:42:46.753Z,20.76
2022-08-19T18:45:32.642Z,20.72
2022-08-19T18:48:27.454Z,20.66
2022-08-19T18:51:02.402Z,20.49
2022-08-19T18:53:35.821Z,20.50
2022-08-19T18:56:05.828Z,20.24
2022-08-19T18:58:35.324Z,20.43
2022-08-19T19:01:12.665Z,20.31
2022-08-19T19:03:45.790Z,20.20
2022-08-19T19:06:18.938Z,20.27
2022-08-19T19:08:47.710Z,20.19
2022-08-19T19:11:21.497Z,20.23
2022-08-19T19:13:50.050Z,20.23
2022-08-19T19:16:22.446Z,20.06
2022-08-19T19:18:53.163Z,19.94
2022-08-19T19:21:24.422Z,19.76
2022-08-19T19:23:54.072Z,19.85
2022-08-19T19:26:23.229Z,19.79
2022-08-19T19:28:51.765Z,19.75
2022-08-19T19:31:25.890Z,19.55
2022-08-19T19:33:54.435Z,19.53
2022-08-19T19:36:24.887Z,19.46
2022-08-19T19:38:53.193Z,19.34
2022-08-19T19:41:28.975Z,19.38
2022-08-19T19:44:29.296Z,19.31
2022-08-19T19:46:49.747Z,19.19
2022-08-19T19:49:17.910Z,19.17
2022-08-19T19:51:47.324Z,19.16
2022-08-19T19:54:15.347Z,19.17
2022-08-19T19:56:45.728Z,19.06
2022-08-19T19:59:14.017Z,18.98
2022-08-19T20:01:46.507Z,18.93
2022-08-19T20:04:15.360Z,18.88
2022-08-19T20:06:44.031Z,18.91
2022-08-19T20:09:17.577Z,18.93
2022-08-19T20:11:53.485Z,18.79
2022-08-19T20:14:24.042Z,18.93
2022-08-19T20:16:53.952Z,18.92
2022-08-19T20:19:23.891Z,18.92
2022-08-19T20:21:53.299Z,18.76
2022-08-19T20:24:26.256Z,18.68
2022-08-19T20:26:55.271Z,18.70
2022-08-19T20:29:38.073Z,18.70
2022-08-19T20:32:07.812Z,18.76
2022-08-19T20:34:37.460Z,18.73
2022-08-19T20:37:06.244Z,18.61
2022-08-19T20:39:35.791Z,18.55
2022-08-19T20:42:04.540Z,18.48
2022-08-19T20:44:32.733Z,18.61
2022-08-19T20:47:03.977Z,18.50
2022-08-19T20:49:36.260Z,18.54
2022-08-19T20:52:07.657Z,18.55
2022-08-19T20:54:37.203Z,18.49
2022-08-19T20:57:05.610Z,18.47
2022-08-19T20:59:33.994Z,18.38
2022-08-19T21:02:02.696Z,18.31
2022-08-19T21:04:31.449Z,18.41
2022-08-19T21:07:00.135Z,18.42
2022-08-19T21:09:29.772Z,18.38
2022-08-19T21:12:05.509Z,18.43
2022-08-19T21:14:33.770Z,18.42
2022-08-19T21:17:02.116Z,18.22
2022-08-19T21:19:30.100Z,18.08
2022-08-19T21:21:58.130Z,18.09
2022-08-19T21:24:31.436Z,18.10
2022-08-19T21:27:01.559Z,18.19
2022-08-19T21:29:32.136Z,18.05
2022-08-19T21:32:00.120Z,17.87
2022-08-19T21:34:28.089Z,17.97
2022-08-19T21:36:56.097Z,18.08
2022-08-19T21:39:24.137Z,18.05
2022-08-19T21:41:52.477Z,17.97
2022-08-19T21:44:21.860Z,17.99
2022-08-19T21:46:50.447Z,17.82
2022-08-19T21:49:18.766Z,17.88
2022-08-19T21:51:46.739Z,17.93
2022-08-19T21:54:14.747Z,17.95
2022-08-19T21:56:42.918Z,17.95
2022-08-19T21:59:10.924Z,17.81
2022-08-19T22:01:42.774Z,17.90
2022-08-19T22:04:12.894Z,17.91
2022-08-19T22:06:41.048Z,17.87
2022-08-19T22:09:09.153Z,17.91
2022-08-19T22:11:37.397Z,17.85
2022-08-19T22:14:05.770Z,17.85
2022-08-19T22:16:35.817Z,17.85
2022-08-19T22:19:06.166Z,17.81
2022-08-19T22:21:40.860Z,17.81
2022-08-19T22:24:10.319Z,17.82
2022-08-19T22:26:38.459Z,17.64
2022-08-19T22:29:07.623Z,17.65
2022-08-19T22:31:37.690Z,17.70
2022-08-19T22:34:07.526Z,17.68
2022-08-19T22:36:35.670Z,17.75
2022-08-19T22:39:04.877Z,17.62
2022-08-19T22:41:33.706Z,17.65
2022-08-19T22:44:02.033Z,17.60
2022-08-19T22:46:34.346Z,17.50
2022-08-19T22:49:02.339Z,17.45
2022-08-19T22:51:49.446Z,17.57
2022-08-19T22:54:18.134Z,17.50
2022-08-19T22:56:46.601Z,17.53
2022-08-19T22:59:14.623Z,17.59
2022-08-19T23:01:42.965Z,17.38
2022-08-19T23:04:11.456Z,17.16
2022-08-19T23:06:42.223Z,17.28
2022-08-19T23:09:10.886Z,17.28
2022-08-19T23:11:45.163Z,17.26
2022-08-19T23:14:14.465Z,17.25
2022-08-19T23:16:50.438Z,17.24
2022-08-19T23:19:19.567Z,17.19
2022-08-19T23:21:49.605Z,17.26
2022-08-19T23:24:17.611Z,17.18
2022-08-19T23:26:59.538Z,17.25
2022-08-19T23:29:45.105Z,17.15
2022-08-19T23:32:13.338Z,17.05
2022-08-19T23:34:44.209Z,17.08
2022-08-19T23:37:13.698Z,17.06
2022-08-19T23:39:41.751Z,16.95
2022-08-19T23:42:12.973Z,17.02
2022-08-19T23:44:51.246Z,17.12
2022-08-19T23:47:19.764Z,17.12
2022-08-19T23:49:48.728Z,17.08
2022-08-19T23:52:18.127Z,17.00
2022-08-19T23:54:46.083Z,17.05
2022-08-19T23:57:14.769Z,17.11
2022-08-19T23:59:45.447Z,17.09
